createdAt,value
2022-11-03T00:01:05.482Z,31.00
2022-11-03T00:04:12.052Z,31.23
2022-11-03T00:07:20.579Z,27.02
2022-11-03T00:10:23.432Z,26.12
2022-11-03T00:13:25.990Z,24.90
2022-11-03T00:16:29.222Z,27.80
2022-11-03T00:19:32.881Z,25.73
2022-11-03T00:22:37.030Z,28.12
2022-11-03T00:25:39.598Z,26.05
2022-11-03T00:28:44.900Z,26.37
2022-11-03T00:31:47.460Z,25.73
2022-11-03T00:34:50.609Z,26.07
2022-11-03T00:37:53.217Z,25.88
2022-11-03T00:41:01.364Z,26.40
2022-11-03T00:44:04.656Z,30.12
2022-11-03T00:47:07.632Z,25.33
2022-11-03T00:50:10.160Z,25.53
2022-11-03T00:53:13.014Z,25.35
2022-11-03T00:56:18.119Z,25.52
2022-11-03T00:59:21.920Z,27.25
2022-11-03T01:02:24.558Z,27.47
2022-11-03T01:05:45.984Z,26.50
2022-11-03T01:08:48.559Z,23.05
2022-11-03T01:12:13.090Z,24.02
2022-11-03T01:15:15.879Z,22.33
2022-11-03T01:18:18.791Z,25.87
2022-11-03T01:21:21.437Z,25.33
2022-11-03T01:24:24.442Z,31.33
2022-11-03T01:27:26.920Z,32.75
2022-11-03T01:30:30.051Z,24.75
2022-11-03T01:33:33.370Z,28.30
2022-11-03T01:36:36.299Z,23.93
2022-11-03T01:39:38.812Z,26.77
2022-11-03T01:42:41.743Z,28.60
2022-11-03T01:45:45.471Z,26.35
2022-11-03T01:49:11.649Z,24.30
2022-11-03T01:52:20.289Z,25.13
2022-11-03T01:55:28.746Z,26.55
2022-11-03T01:58:36.493Z,24.37
2022-11-03T02:01:39.823Z,24.63
2022-11-03T02:04:43.840Z,26.03
2022-11-03T02:11:35.281Z,23.70
2022-11-03T02:14:49.871Z,30.75
2022-11-03T02:17:55.722Z,21.85
2022-11-03T02:21:12.176Z,24.80
2022-11-03T02:24:43.307Z,25.17
2022-11-03T02:27:46.350Z,21.37
2022-11-03T02:31:24.429Z,23.80
2022-11-03T02:34:34.606Z,22.00
2022-11-03T02:37:42.533Z,21.40
2022-11-03T02:40:52.054Z,24.52
2022-11-03T02:43:57.243Z,23.50
2022-11-03T02:47:03.999Z,21.48
2022-11-03T02:50:10.719Z,22.67
2022-11-03T02:53:14.592Z,25.67
2022-11-03T02:56:24.960Z,23.10
2022-11-03T02:59:32.199Z,23.00
2022-11-03T03:03:08.176Z,25.42
2022-11-03T03:06:19.447Z,25.80
2022-11-03T03:09:29.537Z,26.67
2022-11-03T03:12:35.660Z,25.93
2022-11-03T03:15:46.562Z,29.55
2022-11-03T03:19:04.690Z,25.25
2022-11-03T03:22:35.144Z,24.77
2022-11-03T03:25:40.986Z,21.70
2022-11-03T03:28:52.594Z,25.13
2022-11-03T03:31:59.064Z,28.02
2022-11-03T03:35:03.616Z,25.90
2022-11-03T03:38:11.172Z,27.77
2022-11-03T03:41:22.274Z,25.40
2022-11-03T03:44:26.185Z,24.17
2022-11-03T03:47:31.262Z,25.45
2022-11-03T03:50:38.783Z,21.60
2022-11-03T03:53:42.537Z,29.80
2022-11-03T03:56:54.545Z,22.40
2022-11-03T03:59:57.446Z,26.80
2022-11-03T04:03:00.365Z,23.42
2022-11-03T04:06:03.889Z,28.92
2022-11-03T04:09:07.425Z,30.95
2022-11-03T04:12:29.121Z,29.47
2022-11-03T04:15:51.112Z,26.53
2022-11-03T04:19:12.747Z,26.50
2022-11-03T04:22:18.240Z,26.37
2022-11-03T04:25:21.181Z,28.83
2022-11-03T04:28:25.928Z,25.80
2022-11-03T04:31:31.952Z,31.90
2022-11-03T04:34:34.588Z,33.33
2022-11-03T04:37:38.256Z,33.75
2022-11-03T04:40:44.602Z,50.42
2022-11-03T04:43:47.808Z,34.77
2022-11-03T04:46:50.432Z,43.80
2022-11-03T04:49:53.356Z,39.88
2022-11-03T04:52:59.425Z,32.72
2022-11-03T04:56:07.222Z,34.83
2022-11-03T04:59:14.512Z,32.87
2022-11-03T05:02:20.401Z,27.87
2022-11-03T05:05:26.294Z,24.17
2022-11-03T05:08:29.716Z,25.85
2022-11-03T05:11:39.308Z,26.48
2022-11-03T05:14:42.300Z,20.27
2022-11-03T05:17:44.860Z,29.97
2022-11-03T05:20:56.835Z,24.73
2022-11-03T05:24:03.658Z,34.78
2022-11-03T05:27:16.785Z,31.40
2022-11-03T05:30:19.406Z,28.90
2022-11-03T05:33:28.628Z,32.13
2022-11-03T05:36:33.883Z,27.77
2022-11-03T05:39:40.742Z,29.27
2022-11-03T05:42:46.881Z,28.08
2022-11-03T05:45:58.146Z,32.53
2022-11-03T05:49:07.691Z,26.40
2022-11-03T05:52:23.271Z,28.23
2022-11-03T05:55:35.017Z,31.98
2022-11-03T05:58:39.763Z,32.47
2022-11-03T06:01:42.518Z,28.40
2022-11-03T06:04:45.447Z,31.10
2022-11-03T06:07:50.122Z,31.40
2022-11-03T06:10:55.725Z,33.03
2022-11-03T06:13:59.626Z,32.28
2022-11-03T06:17:08.593Z,37.53
2022-11-03T06:20:19.152Z,30.30
2022-11-03T06:23:23.120Z,30.15
2022-11-03T06:26:28.843Z,29.37
2022-11-03T06:29:33.658Z,28.50
2022-11-03T06:32:36.684Z,31.77
2022-11-03T06:35:39.945Z,29.70
2022-11-03T06:38:43.447Z,35.00
2022-11-03T06:41:47.439Z,28.98
2022-11-03T06:44:51.764Z,33.05
2022-11-03T06:47:55.373Z,32.43
2022-11-03T06:51:00.094Z,33.53
2022-11-03T06:54:09.809Z,85.65
2022-11-03T06:57:14.874Z,60.47
2022-11-03T07:00:37.022Z,62.03
2022-11-03T07:03:42.590Z,57.90
2022-11-03T07:06:52.807Z,53.73
2022-11-03T07:09:56.025Z,52.03
2022-11-03T07:13:12.306Z,44.17
2022-11-03T07:16:43.031Z,40.92
2022-11-03T07:19:46.216Z,47.47
2022-11-03T07:22:50.160Z,45.50
2022-11-03T07:26:02.906Z,36.33
2022-11-03T07:29:23.174Z,29.48
2022-11-03T07:32:33.505Z,31.62
2022-11-03T07:39:21.526Z,34.93
2022-11-03T07:42:26.413Z,30.85
2022-11-03T07:45:45.358Z,29.63
2022-11-03T07:48:50.360Z,31.60
2022-11-03T07:51:54.698Z,28.63
2022-11-03T07:54:57.422Z,26.20
2022-11-03T07:58:00.351Z,31.33
2022-11-03T08:01:16.702Z,27.75
2022-11-03T08:04:26.074Z,34.85
2022-11-03T08:07:29.087Z,29.83
2022-11-03T08:10:32.705Z,32.57
2022-11-03T08:13:35.760Z,29.85
2022-11-03T08:16:38.946Z,29.90
2022-11-03T08:19:42.115Z,27.80
2022-11-03T08:22:59.088Z,25.90
2022-11-03T08:26:07.712Z,27.60
2022-11-03T08:29:10.726Z,28.70
2022-11-03T08:32:14.246Z,28.40
2022-11-03T08:35:17.326Z,24.20
2022-11-03T08:38:19.882Z,25.70
2022-11-03T08:41:22.833Z,22.63
2022-11-03T08:44:25.456Z,21.15
2022-11-03T08:47:28.275Z,21.60
2022-11-03T08:50:30.896Z,16.62
2022-11-03T08:53:34.714Z,14.10
2022-11-03T08:56:37.241Z,18.80
2022-11-03T08:59:40.170Z,15.93
2022-11-03T09:02:43.877Z,16.75
2022-11-03T09:05:47.133Z,18.50
2022-11-03T09:12:12.709Z,15.00
2022-11-03T09:15:15.507Z,18.52
2022-11-03T09:18:18.377Z,15.32
2022-11-03T09:21:20.971Z,19.15
2022-11-03T09:24:23.776Z,12.17
2022-11-03T09:27:26.419Z,16.27
2022-11-03T09:30:29.502Z,15.07
2022-11-03T09:33:32.062Z,18.80
2022-11-03T09:36:35.116Z,17.75
2022-11-03T09:39:37.817Z,17.30
2022-11-03T09:42:41.502Z,20.50
2022-11-03T09:45:44.772Z,15.60
2022-11-03T09:48:47.930Z,16.42
2022-11-03T09:51:50.558Z,25.55
2022-11-03T09:54:58.078Z,20.37
2022-11-03T09:58:09.584Z,16.70
2022-11-03T10:01:13.545Z,21.02
2022-11-03T10:04:21.530Z,23.80
2022-11-03T10:07:27.323Z,25.50
2022-11-03T10:10:31.067Z,18.47
2022-11-03T10:13:39.144Z,15.33
2022-11-03T10:16:43.123Z,16.40
2022-11-03T10:19:49.601Z,18.42
2022-11-03T10:22:54.659Z,15.32
2022-11-03T10:26:10.210Z,15.80
2022-11-03T10:32:30.954Z,20.27
2022-11-03T10:35:36.966Z,16.00
2022-11-03T10:38:39.570Z,16.73
2022-11-03T10:41:57.587Z,16.90
2022-11-03T10:45:20.160Z,17.03
2022-11-03T10:48:25.178Z,19.83
2022-11-03T10:51:29.229Z,18.48
2022-11-03T10:54:35.702Z,19.48
2022-11-03T10:57:38.593Z,21.63
2022-11-03T11:00:42.948Z,21.13
2022-11-03T11:03:45.950Z,17.08
2022-11-03T11:06:49.620Z,21.35
2022-11-03T11:09:54.475Z,19.50
2022-11-03T11:13:15.755Z,18.27
2022-11-03T11:16:54.370Z,16.13
2022-11-03T11:20:31.031Z,19.05
2022-11-03T11:23:33.615Z,18.20
2022-11-03T11:26:37.939Z,14.75
2022-11-03T11:29:40.509Z,16.20
2022-11-03T11:32:46.163Z,15.17
2022-11-03T11:35:48.675Z,22.58
2022-11-03T11:38:55.851Z,19.95
2022-11-03T11:42:14.770Z,24.33
2022-11-03T11:45:56.260Z,19.30
2022-11-03T11:49:04.548Z,19.40
2022-11-03T11:52:15.217Z,21.10
2022-11-03T11:55:42.594Z,20.85
2022-11-03T11:58:53.033Z,22.58
2022-11-03T12:01:57.268Z,20.67
2022-11-03T12:05:04.905Z,19.13
2022-11-03T12:08:21.422Z,22.23
2022-11-03T12:11:55.344Z,26.42
2022-11-03T12:14:58.811Z,14.20
2022-11-03T12:18:40.659Z,22.37
2022-11-03T12:21:46.722Z,16.23
2022-11-03T12:24:55.785Z,20.58
2022-11-03T12:27:58.456Z,18.30
2022-11-03T12:31:02.110Z,29.73
2022-11-03T12:34:04.984Z,21.67
2022-11-03T12:37:08.572Z,20.87
2022-11-03T12:40:13.973Z,16.77
2022-11-03T12:43:17.137Z,19.30
2022-11-03T12:46:21.491Z,21.00
2022-11-03T12:49:24.546Z,24.80
2022-11-03T12:52:27.122Z,23.50
2022-11-03T12:55:30.373Z,18.80
2022-11-03T12:58:33.219Z,19.92
2022-11-03T13:01:36.307Z,20.05
2022-11-03T13:04:39.241Z,22.40
2022-11-03T13:07:43.370Z,21.30
2022-11-03T13:10:46.022Z,25.00
2022-11-03T13:13:48.991Z,20.98
2022-11-03T13:16:51.781Z,21.73
2022-11-03T13:19:54.929Z,18.40
2022-11-03T13:22:57.497Z,19.97
2022-11-03T13:26:00.591Z,24.17
2022-11-03T13:29:03.864Z,23.15
2022-11-03T13:32:08.491Z,13.38
2022-11-03T13:35:13.933Z,23.40
2022-11-03T13:38:18.538Z,19.97
2022-11-03T13:41:21.093Z,23.30
2022-11-03T13:44:26.612Z,23.05
2022-11-03T13:47:41.939Z,24.92
2022-11-03T13:50:53.323Z,23.53
2022-11-03T14:00:43.292Z,29.67
2022-11-03T14:07:08.918Z,27.57
2022-11-03T14:10:11.852Z,38.03
2022-11-03T14:13:14.372Z,26.85
2022-11-03T14:16:17.453Z,30.70
2022-11-03T14:19:20.259Z,22.95
2022-11-03T14:22:24.142Z,20.87
2022-11-03T14:25:27.116Z,27.17
2022-11-03T14:28:30.067Z,19.80
2022-11-03T14:31:33.913Z,32.30
2022-11-03T14:34:38.005Z,21.42
2022-11-03T14:37:40.791Z,36.57
2022-11-03T14:41:02.821Z,38.63
2022-11-03T14:44:07.247Z,29.42
2022-11-03T14:47:15.798Z,28.85
2022-11-03T14:50:18.294Z,26.80
2022-11-03T14:53:21.459Z,33.53
2022-11-03T14:56:24.728Z,30.40
2022-11-03T14:59:28.236Z,36.08
2022-11-03T15:02:30.795Z,35.92
2022-11-03T15:05:46.074Z,34.35
2022-11-03T15:08:53.448Z,24.17
2022-11-03T15:11:59.007Z,37.93
2022-11-03T15:15:01.610Z,35.83
2022-11-03T15:18:04.740Z,36.75
2022-11-03T15:21:07.463Z,34.47
2022-11-03T15:27:32.932Z,24.07
2022-11-03T15:30:35.842Z,37.08
2022-11-03T15:33:38.447Z,37.00
2022-11-03T15:36:41.337Z,45.90
2022-11-03T15:39:43.925Z,47.03
2022-11-03T15:42:46.874Z,49.33
2022-11-03T15:45:49.395Z,34.03
2022-11-03T15:48:54.813Z,37.08
2022-11-03T15:51:57.520Z,45.63
2022-11-03T15:55:00.430Z,38.33
2022-11-03T15:58:04.576Z,48.60
2022-11-03T16:01:07.975Z,50.90
2022-11-03T16:04:13.436Z,53.13
2022-11-03T16:07:16.018Z,42.05
2022-11-03T16:10:18.832Z,44.03
2022-11-03T16:13:21.566Z,40.73
2022-11-03T16:16:24.469Z,39.88
2022-11-03T16:19:27.094Z,41.90
2022-11-03T16:22:30.999Z,36.75
2022-11-03T16:25:34.707Z,51.57
2022-11-03T16:28:37.855Z,46.07
2022-11-03T16:31:40.685Z,25.30
2022-11-03T16:34:44.953Z,40.80
2022-11-03T16:37:49.533Z,29.77
2022-11-03T16:40:53.223Z,36.77
2022-11-03T16:43:56.205Z,102.30
2022-11-03T16:46:59.148Z,64.62
2022-11-03T16:50:01.739Z,51.13
2022-11-03T16:53:06.034Z,56.53
2022-11-03T16:56:10.251Z,51.10
2022-11-03T16:59:13.299Z,50.67
2022-11-03T17:02:18.473Z,37.92
2022-11-03T17:05:22.086Z,33.90
2022-11-03T17:08:51.294Z,37.63
2022-11-03T17:11:48.899Z,34.20
2022-11-03T17:14:55.630Z,39.93
2022-11-03T17:18:00.408Z,43.38
2022-11-03T17:21:03.054Z,37.20
2022-11-03T17:24:06.912Z,34.10
2022-11-03T17:27:15.743Z,35.43
2022-11-03T17:30:31.514Z,39.63
2022-11-03T17:33:35.315Z,28.30
2022-11-03T17:36:38.379Z,48.08
2022-11-03T17:39:41.647Z,50.00
2022-11-03T17:42:45.049Z,49.80
2022-11-03T17:45:47.709Z,49.37
2022-11-03T17:48:50.599Z,34.53
2022-11-03T17:51:55.157Z,43.83
2022-11-03T17:55:01.263Z,56.95
2022-11-03T17:58:06.433Z,46.83
2022-11-03T18:01:11.088Z,31.33
2022-11-03T18:04:18.150Z,43.35
2022-11-03T18:07:24.840Z,39.38
2022-11-03T18:10:33.605Z,31.30
2022-11-03T18:13:37.501Z,32.30
2022-11-03T18:16:41.476Z,46.13
2022-11-03T18:19:45.564Z,31.27
2022-11-03T18:22:49.379Z,34.55
2022-11-03T18:25:54.773Z,36.67
2022-11-03T18:28:58.268Z,39.70
2022-11-03T18:32:03.945Z,28.97
2022-11-03T18:35:11.625Z,45.65
2022-11-03T18:38:15.881Z,36.42
2022-11-03T18:41:38.648Z,24.27
2022-11-03T18:44:46.907Z,29.80
2022-11-03T18:47:49.931Z,48.70
2022-11-03T18:50:56.854Z,51.90
2022-11-03T18:54:00.412Z,48.63
2022-11-03T18:57:04.029Z,55.30
2022-11-03T19:00:19.521Z,45.83
2022-11-03T19:03:23.845Z,51.47
2022-11-03T19:06:27.224Z,55.15
2022-11-03T19:09:30.814Z,37.72
2022-11-03T19:12:38.796Z,48.00
2022-11-03T19:15:43.286Z,43.97
2022-11-03T19:18:47.077Z,44.10
2022-11-03T19:21:53.756Z,46.80
2022-11-03T19:24:57.182Z,30.70
2022-11-03T19:28:00.979Z,48.28
2022-11-03T19:31:04.545Z,39.33
2022-11-03T19:34:13.631Z,43.17
2022-11-03T19:37:18.146Z,46.08
2022-11-03T19:40:21.305Z,47.17
2022-11-03T19:43:24.630Z,37.28
2022-11-03T19:46:28.315Z,38.10
2022-11-03T19:49:31.636Z,37.53
2022-11-03T19:52:35.880Z,39.25
2022-11-03T19:55:42.672Z,47.25
2022-11-03T19:58:46.733Z,46.63
2022-11-03T20:01:50.730Z,35.43
2022-11-03T20:04:55.323Z,40.50
2022-11-03T20:08:04.596Z,41.20
2022-11-03T20:11:08.822Z,45.42
2022-11-03T20:14:18.397Z,40.35
2022-11-03T20:17:23.374Z,36.47
2022-11-03T20:20:31.067Z,31.20
2022-11-03T20:23:35.976Z,33.05
2022-11-03T20:26:39.135Z,50.95
2022-11-03T20:29:42.984Z,38.63
2022-11-03T20:32:48.558Z,33.67
2022-11-03T20:35:53.973Z,33.87
2022-11-03T20:38:59.805Z,49.28
2022-11-03T20:42:04.453Z,50.28
2022-11-03T20:45:16.591Z,37.30
2022-11-03T20:48:19.859Z,47.33
2022-11-03T20:51:26.459Z,53.30
2022-11-03T20:54:30.663Z,47.88
2022-11-03T20:57:33.285Z,45.30
2022-11-03T21:00:36.645Z,46.47
2022-11-03T21:07:04.302Z,40.63
2022-11-03T21:10:07.475Z,34.17
2022-11-03T21:13:17.925Z,50.20
2022-11-03T21:16:41.106Z,36.22
2022-11-03T21:19:59.433Z,45.87
2022-11-03T21:23:06.527Z,45.67
2022-11-03T21:26:12.705Z,48.25
2022-11-03T21:29:27.495Z,48.58
2022-11-03T21:32:38.229Z,59.72
2022-11-03T21:35:42.674Z,45.37
2022-11-03T21:38:45.794Z,43.27
2022-11-03T21:42:07.351Z,51.00
2022-11-03T21:45:10.808Z,35.90
2022-11-03T21:48:32.461Z,40.53
2022-11-03T21:51:35.391Z,42.93
2022-11-03T21:54:39.418Z,36.40
2022-11-03T21:57:42.248Z,42.05
2022-11-03T22:00:47.361Z,39.53
2022-11-03T22:03:51.390Z,43.63
2022-11-03T22:06:56.215Z,43.53
2022-11-03T22:09:59.126Z,45.63
2022-11-03T22:13:01.650Z,43.20
2022-11-03T22:16:23.636Z,48.55
2022-11-03T22:19:45.041Z,38.08
2022-11-03T22:23:06.765Z,37.20
2022-11-03T22:26:31.601Z,34.90
2022-11-03T22:29:53.299Z,39.63
2022-11-03T22:32:58.077Z,37.03
2022-11-03T22:36:21.900Z,33.75
2022-11-03T22:39:44.842Z,38.97
2022-11-03T22:43:06.641Z,39.30
2022-11-03T22:46:11.255Z,39.10
2022-11-03T22:49:14.180Z,28.50
2022-11-03T22:52:16.790Z,37.47
2022-11-03T22:55:19.775Z,32.90
2022-11-03T22:58:25.318Z,29.27
2022-11-03T23:01:32.167Z,35.15
2022-11-03T23:04:37.372Z,41.80
2022-11-03T23:07:41.770Z,35.50
2022-11-03T23:10:44.534Z,28.73
2022-11-03T23:13:53.313Z,32.17
2022-11-03T23:16:55.895Z,26.58
2022-11-03T23:20:17.166Z,30.83
2022-11-03T23:23:39.417Z,39.67
2022-11-03T23:26:43.036Z,46.53
2022-11-03T23:29:45.603Z,37.50
2022-11-03T23:32:48.771Z,35.53
2022-11-03T23:35:51.453Z,38.33
2022-11-03T23:38:58.515Z,28.75
2022-11-03T23:42:01.207Z,42.97
2022-11-03T23:45:22.960Z,35.93
2022-11-03T23:48:44.229Z,40.80
2022-11-03T23:51:47.166Z,26.30
2022-11-03T23:54:49.792Z,38.25
2022-11-03T23:58:11.219Z,33.43
